sensor_id;sensor_type;location;lat;lon;timestamp;P1;durP1;ratioP1;P2;durP2;ratioP2
82028;SDS011;71590;52.216;13.448;2024-01-06T00:01:55;34.47;;;26.63;;
82028;SDS011;71590;52.216;13.448;2024-01-06T00:04:22;35.33;;;25.97;;
82028;SDS011;71590;52.216;13.448;2024-01-06T00:06:48;35.43;;;26.83;;
82028;SDS011;71590;52.216;13.448;2024-01-06T00:09:15;34.93;;;26.20;;
82028;SDS011;71590;52.216;13.448;2024-01-06T00:11:41;38.03;;;26.73;;
82028;SDS011;71590;52.216;13.448;2024-01-06T00:14:08;34.27;;;26.50;;
82028;SDS011;71590;52.216;13.448;2024-01-06T00:16:34;36.17;;;27.53;;
82028;SDS011;71590;52.216;13.448;2024-01-06T00:19:00;38.00;;;27.43;;
82028;SDS011;71590;52.216;13.448;2024-01-06T00:21:28;39.60;;;28.13;;
82028;SDS011;71590;52.216;13.448;2024-01-06T00:23:55;35.57;;;28.93;;
82028;SDS011;71590;52.216;13.448;2024-01-06T00:26:24;38.33;;;30.00;;
82028;SDS011;71590;52.216;13.448;2024-01-06T00:28:50;37.70;;;28.27;;
82028;SDS011;71590;52.216;13.448;2024-01-06T00:31:17;37.67;;;27.50;;
82028;SDS011;71590;52.216;13.448;2024-01-06T00:33:43;38.43;;;27.17;;
82028;SDS011;71590;52.216;13.448;2024-01-06T00:36:10;35.27;;;27.57;;
82028;SDS011;71590;52.216;13.448;2024-01-06T00:38:36;38.27;;;29.10;;
82028;SDS011;71590;52.216;13.448;2024-01-06T00:41:03;38.10;;;27.73;;
82028;SDS011;71590;52.216;13.448;2024-01-06T00:43:29;47.43;;;32.50;;
82028;SDS011;71590;52.216;13.448;2024-01-06T00:45:56;41.13;;;29.77;;
82028;SDS011;71590;52.216;13.448;2024-01-06T00:48:22;41.13;;;28.93;;
82028;SDS011;71590;52.216;13.448;2024-01-06T00:50:49;59.03;;;42.50;;
82028;SDS011;71590;52.216;13.448;2024-01-06T00:53:15;37.97;;;27.47;;
82028;SDS011;71590;52.216;13.448;2024-01-06T00:55:42;37.40;;;27.50;;
82028;SDS011;71590;52.216;13.448;2024-01-06T00:58:08;37.67;;;27.63;;
82028;SDS011;71590;52.216;13.448;2024-01-06T01:00:35;39.53;;;29.77;;
82028;SDS011;71590;52.216;13.448;2024-01-06T01:03:01;41.73;;;28.77;;
82028;SDS011;71590;52.216;13.448;2024-01-06T01:05:28;36.77;;;26.93;;
82028;SDS011;71590;52.216;13.448;2024-01-06T01:07:54;40.03;;;27.67;;
82028;SDS011;71590;52.216;13.448;2024-01-06T01:10:21;37.80;;;28.70;;
82028;SDS011;71590;52.216;13.448;2024-01-06T01:12:47;36.40;;;27.97;;
82028;SDS011;71590;52.216;13.448;2024-01-06T01:15:13;37.10;;;26.73;;
82028;SDS011;71590;52.216;13.448;2024-01-06T01:17:40;38.63;;;27.57;;
82028;SDS011;71590;52.216;13.448;2024-01-06T01:20:07;36.47;;;27.17;;
82028;SDS011;71590;52.216;13.448;2024-01-06T01:22:34;38.20;;;26.77;;
82028;SDS011;71590;52.216;13.448;2024-01-06T01:25:00;35.83;;;25.00;;
82028;SDS011;71590;52.216;13.448;2024-01-06T01:27:31;34.53;;;26.93;;
82028;SDS011;71590;52.216;13.448;2024-01-06T01:29:57;33.60;;;24.67;;
82028;SDS011;71590;52.216;13.448;2024-01-06T01:32:24;30.77;;;24.00;;
82028;SDS011;71590;52.216;13.448;2024-01-06T01:34:51;36.47;;;25.63;;
82028;SDS011;71590;52.216;13.448;2024-01-06T01:37:17;34.30;;;24.83;;
82028;SDS011;71590;52.216;13.448;2024-01-06T01:39:43;41.57;;;27.97;;
82028;SDS011;71590;52.216;13.448;2024-01-06T01:42:10;44.67;;;27.80;;
82028;SDS011;71590;52.216;13.448;2024-01-06T01:44:36;35.93;;;26.97;;
82028;SDS011;71590;52.216;13.448;2024-01-06T01:47:04;40.23;;;27.20;;
82028;SDS011;71590;52.216;13.448;2024-01-06T01:49:31;40.83;;;27.10;;
82028;SDS011;71590;52.216;13.448;2024-01-06T01:51:59;41.03;;;27.17;;
82028;SDS011;71590;52.216;13.448;2024-01-06T01:54:25;38.43;;;26.57;;
82028;SDS011;71590;52.216;13.448;2024-01-06T01:56:52;33.50;;;25.20;;
82028;SDS011;71590;52.216;13.448;2024-01-06T01:59:19;35.20;;;25.80;;
82028;SDS011;71590;52.216;13.448;2024-01-06T02:01:46;38.90;;;25.97;;
82028;SDS011;71590;52.216;13.448;2024-01-06T02:04:13;34.80;;;24.80;;
82028;SDS011;71590;52.216;13.448;2024-01-06T02:06:40;34.80;;;24.70;;
82028;SDS011;71590;52.216;13.448;2024-01-06T02:09:06;33.50;;;24.33;;
82028;SDS011;71590;52.216;13.448;2024-01-06T02:11:33;32.50;;;23.57;;
82028;SDS011;71590;52.216;13.448;2024-01-06T02:13:59;40.87;;;25.17;;
82028;SDS011;71590;52.216;13.448;2024-01-06T02:16:26;35.77;;;24.73;;
82028;SDS011;71590;52.216;13.448;2024-01-06T02:18:53;36.57;;;24.87;;
82028;SDS011;71590;52.216;13.448;2024-01-06T02:21:19;34.97;;;23.90;;
82028;SDS011;71590;52.216;13.448;2024-01-06T02:23:47;35.33;;;24.40;;
82028;SDS011;71590;52.216;13.448;2024-01-06T02:26:14;41.77;;;25.60;;
82028;SDS011;71590;52.216;13.448;2024-01-06T02:28:41;42.50;;;26.53;;
82028;SDS011;71590;52.216;13.448;2024-01-06T02:31:07;48.40;;;25.37;;
82028;SDS011;71590;52.216;13.448;2024-01-06T02:33:34;41.63;;;25.50;;
82028;SDS011;71590;52.216;13.448;2024-01-06T02:36:00;38.70;;;24.97;;
82028;SDS011;71590;52.216;13.448;2024-01-06T02:38:27;43.03;;;26.17;;
82028;SDS011;71590;52.216;13.448;2024-01-06T02:40:53;43.77;;;27.03;;
82028;SDS011;71590;52.216;13.448;2024-01-06T02:43:20;39.17;;;25.57;;
82028;SDS011;71590;52.216;13.448;2024-01-06T02:45:46;38.07;;;26.03;;
82028;SDS011;71590;52.216;13.448;2024-01-06T02:48:13;39.27;;;26.77;;
82028;SDS011;71590;52.216;13.448;2024-01-06T02:50:41;45.07;;;26.87;;
82028;SDS011;71590;52.216;13.448;2024-01-06T02:53:08;40.27;;;25.63;;
82028;SDS011;71590;52.216;13.448;2024-01-06T02:55:36;56.40;;;26.40;;
82028;SDS011;71590;52.216;13.448;2024-01-06T02:58:03;34.20;;;23.87;;
82028;SDS011;71590;52.216;13.448;2024-01-06T03:00:29;41.60;;;25.47;;
82028;SDS011;71590;52.216;13.448;2024-01-06T03:02:56;40.70;;;24.63;;
82028;SDS011;71590;52.216;13.448;2024-01-06T03:05:23;48.70;;;25.97;;
82028;SDS011;71590;52.216;13.448;2024-01-06T03:07:49;34.00;;;23.17;;
82028;SDS011;71590;52.216;13.448;2024-01-06T03:10:16;44.13;;;23.97;;
82028;SDS011;71590;52.216;13.448;2024-01-06T03:12:42;41.03;;;23.30;;
82028;SDS011;71590;52.216;13.448;2024-01-06T03:15:09;59.77;;;25.67;;
82028;SDS011;71590;52.216;13.448;2024-01-06T03:17:36;44.13;;;23.43;;
82028;SDS011;71590;52.216;13.448;2024-01-06T03:20:03;38.40;;;24.10;;
82028;SDS011;71590;52.216;13.448;2024-01-06T03:22:30;45.60;;;24.70;;
82028;SDS011;71590;52.216;13.448;2024-01-06T03:24:57;63.30;;;27.07;;
82028;SDS011;71590;52.216;13.448;2024-01-06T03:27:24;50.60;;;25.57;;
82028;SDS011;71590;52.216;13.448;2024-01-06T03:29:51;45.77;;;25.63;;
82028;SDS011;71590;52.216;13.448;2024-01-06T03:32:17;45.40;;;27.57;;
82028;SDS011;71590;52.216;13.448;2024-01-06T03:34:44;47.03;;;28.07;;
82028;SDS011;71590;52.216;13.448;2024-01-06T03:37:11;50.47;;;28.00;;
82028;SDS011;71590;52.216;13.448;2024-01-06T03:39:37;47.10;;;26.93;;
82028;SDS011;71590;52.216;13.448;2024-01-06T03:42:05;47.50;;;25.70;;
82028;SDS011;71590;52.216;13.448;2024-01-06T03:44:32;50.63;;;25.63;;
82028;SDS011;71590;52.216;13.448;2024-01-06T03:47:00;48.33;;;25.40;;
82028;SDS011;71590;52.216;13.448;2024-01-06T03:49:27;50.77;;;25.73;;
82028;SDS011;71590;52.216;13.448;2024-01-06T03:51:54;53.93;;;25.40;;
82028;SDS011;71590;52.216;13.448;2024-01-06T03:54:21;50.53;;;26.30;;
82028;SDS011;71590;52.216;13.448;2024-01-06T03:56:49;46.67;;;26.10;;
82028;SDS011;71590;52.216;13.448;2024-01-06T03:59:15;40.23;;;24.87;;
82028;SDS011;71590;52.216;13.448;2024-01-06T04:01:42;54.37;;;26.03;;
82028;SDS011;71590;52.216;13.448;2024-01-06T04:04:09;42.47;;;24.07;;
82028;SDS011;71590;52.216;13.448;2024-01-06T04:06:37;60.97;;;27.10;;
82028;SDS011;71590;52.216;13.448;2024-01-06T04:09:04;47.07;;;25.80;;
82028;SDS011;71590;52.216;13.448;2024-01-06T04:11:31;53.83;;;27.47;;
82028;SDS011;71590;52.216;13.448;2024-01-06T04:13:58;40.50;;;27.53;;
82028;SDS011;71590;52.216;13.448;2024-01-06T04:16:25;51.95;;;36.22;;
82028;SDS011;71590;52.216;13.448;2024-01-06T04:18:52;43.87;;;29.50;;
82028;SDS011;71590;52.216;13.448;2024-01-06T04:21:19;43.40;;;27.20;;
82028;SDS011;71590;52.216;13.448;2024-01-06T04:23:45;38.13;;;25.33;;
82028;SDS011;71590;52.216;13.448;2024-01-06T04:26:12;49.60;;;27.93;;
82028;SDS011;71590;52.216;13.448;2024-01-06T04:28:39;37.87;;;26.20;;
82028;SDS011;71590;52.216;13.448;2024-01-06T04:31:05;38.50;;;26.17;;
82028;SDS011;71590;52.216;13.448;2024-01-06T04:33:35;39.30;;;26.60;;
82028;SDS011;71590;52.216;13.448;2024-01-06T04:36:03;39.43;;;25.93;;
82028;SDS011;71590;52.216;13.448;2024-01-06T04:38:30;36.30;;;25.93;;
82028;SDS011;71590;52.216;13.448;2024-01-06T04:40:56;39.90;;;26.27;;
82028;SDS011;71590;52.216;13.448;2024-01-06T04:43:23;37.73;;;25.50;;
82028;SDS011;71590;52.216;13.448;2024-01-06T04:45:50;37.03;;;25.50;;
82028;SDS011;71590;52.216;13.448;2024-01-06T04:48:18;38.70;;;27.37;;
82028;SDS011;71590;52.216;13.448;2024-01-06T04:50:45;43.13;;;27.07;;
82028;SDS011;71590;52.216;13.448;2024-01-06T04:53:11;37.97;;;25.80;;
82028;SDS011;71590;52.216;13.448;2024-01-06T04:55:38;37.43;;;26.57;;
82028;SDS011;71590;52.216;13.448;2024-01-06T04:58:04;39.30;;;27.57;;
82028;SDS011;71590;52.216;13.448;2024-01-06T05:00:31;40.87;;;27.27;;
82028;SDS011;71590;52.216;13.448;2024-01-06T05:02:59;36.50;;;25.63;;
82028;SDS011;71590;52.216;13.448;2024-01-06T05:05:26;38.23;;;24.03;;
82028;SDS011;71590;52.216;13.448;2024-01-06T05:07:52;37.50;;;26.40;;
82028;SDS011;71590;52.216;13.448;2024-01-06T05:10:19;42.87;;;27.83;;
82028;SDS011;71590;52.216;13.448;2024-01-06T05:12:46;43.60;;;27.90;;
82028;SDS011;71590;52.216;13.448;2024-01-06T05:15:12;42.17;;;27.60;;
82028;SDS011;71590;52.216;13.448;2024-01-06T05:17:39;37.03;;;25.10;;
82028;SDS011;71590;52.216;13.448;2024-01-06T05:20:06;43.67;;;26.97;;
82028;SDS011;71590;52.216;13.448;2024-01-06T05:22:33;40.37;;;26.63;;
82028;SDS011;71590;52.216;13.448;2024-01-06T05:25:00;42.20;;;27.27;;
82028;SDS011;71590;52.216;13.448;2024-01-06T05:27:27;41.73;;;26.97;;
82028;SDS011;71590;52.216;13.448;2024-01-06T05:29:54;39.67;;;27.83;;
82028;SDS011;71590;52.216;13.448;2024-01-06T05:32:21;42.27;;;27.30;;
82028;SDS011;71590;52.216;13.448;2024-01-06T05:34:48;44.50;;;29.33;;
82028;SDS011;71590;52.216;13.448;2024-01-06T05:37:15;46.70;;;28.83;;
82028;SDS011;71590;52.216;13.448;2024-01-06T05:39:42;48.80;;;29.00;;
82028;SDS011;71590;52.216;13.448;2024-01-06T05:42:09;45.53;;;30.87;;
82028;SDS011;71590;52.216;13.448;2024-01-06T05:44:37;47.63;;;31.47;;
82028;SDS011;71590;52.216;13.448;2024-01-06T05:47:04;48.73;;;30.57;;
82028;SDS011;71590;52.216;13.448;2024-01-06T05:49:31;49.00;;;31.47;;
82028;SDS011;71590;52.216;13.448;2024-01-06T05:51:57;48.03;;;31.07;;
82028;SDS011;71590;52.216;13.448;2024-01-06T05:54:24;50.93;;;31.17;;
82028;SDS011;71590;52.216;13.448;2024-01-06T05:56:51;47.63;;;31.40;;
82028;SDS011;71590;52.216;13.448;2024-01-06T05:59:18;47.87;;;31.77;;
82028;SDS011;71590;52.216;13.448;2024-01-06T06:01:44;52.03;;;32.73;;
82028;SDS011;71590;52.216;13.448;2024-01-06T06:04:11;44.70;;;30.83;;
82028;SDS011;71590;52.216;13.448;2024-01-06T06:06:38;50.33;;;31.17;;
82028;SDS011;71590;52.216;13.448;2024-01-06T06:09:05;50.87;;;31.40;;
82028;SDS011;71590;52.216;13.448;2024-01-06T06:11:33;51.00;;;31.40;;
82028;SDS011;71590;52.216;13.448;2024-01-06T06:14:00;48.50;;;31.27;;
82028;SDS011;71590;52.216;13.448;2024-01-06T06:16:29;50.00;;;32.83;;
82028;SDS011;71590;52.216;13.448;2024-01-06T06:18:56;48.53;;;30.90;;
82028;SDS011;71590;52.216;13.448;2024-01-06T06:21:23;53.30;;;31.23;;
82028;SDS011;71590;52.216;13.448;2024-01-06T06:23:52;54.57;;;32.27;;
82028;SDS011;71590;52.216;13.448;2024-01-06T06:26:18;45.70;;;30.83;;
82028;SDS011;71590;52.216;13.448;2024-01-06T06:28:45;53.43;;;32.83;;
82028;SDS011;71590;52.216;13.448;2024-01-06T06:31:11;48.30;;;30.43;;
82028;SDS011;71590;52.216;13.448;2024-01-06T06:33:38;54.50;;;32.20;;
82028;SDS011;71590;52.216;13.448;2024-01-06T06:36:07;50.50;;;31.40;;
82028;SDS011;71590;52.216;13.448;2024-01-06T06:38:34;47.03;;;28.83;;
82028;SDS011;71590;52.216;13.448;2024-01-06T06:41:01;49.07;;;29.83;;
82028;SDS011;71590;52.216;13.448;2024-01-06T06:43:28;44.27;;;29.07;;
82028;SDS011;71590;52.216;13.448;2024-01-06T06:45:55;42.07;;;27.37;;
82028;SDS011;71590;52.216;13.448;2024-01-06T06:48:24;40.73;;;26.83;;
82028;SDS011;71590;52.216;13.448;2024-01-06T06:50:51;43.77;;;28.93;;
82028;SDS011;71590;52.216;13.448;2024-01-06T06:53:19;42.90;;;29.00;;
82028;SDS011;71590;52.216;13.448;2024-01-06T06:55:46;38.50;;;27.00;;
82028;SDS011;71590;52.216;13.448;2024-01-06T06:58:13;42.67;;;27.37;;
82028;SDS011;71590;52.216;13.448;2024-01-06T07:00:40;41.13;;;28.43;;
82028;SDS011;71590;52.216;13.448;2024-01-06T07:03:07;40.73;;;28.87;;
82028;SDS011;71590;52.216;13.448;2024-01-06T07:05:34;44.23;;;28.60;;
82028;SDS011;71590;52.216;13.448;2024-01-06T07:08:01;43.57;;;28.37;;
82028;SDS011;71590;52.216;13.448;2024-01-06T07:10:28;42.50;;;28.63;;
82028;SDS011;71590;52.216;13.448;2024-01-06T07:12:55;41.73;;;26.67;;
82028;SDS011;71590;52.216;13.448;2024-01-06T07:15:21;48.37;;;29.77;;
82028;SDS011;71590;52.216;13.448;2024-01-06T07:17:48;42.13;;;28.23;;
82028;SDS011;71590;52.216;13.448;2024-01-06T07:20:15;46.27;;;28.53;;
82028;SDS011;71590;52.216;13.448;2024-01-06T07:22:42;48.97;;;30.37;;
82028;SDS011;71590;52.216;13.448;2024-01-06T07:25:10;42.37;;;27.30;;
82028;SDS011;71590;52.216;13.448;2024-01-06T07:27:37;47.53;;;30.07;;
82028;SDS011;71590;52.216;13.448;2024-01-06T07:30:04;45.33;;;29.47;;
82028;SDS011;71590;52.216;13.448;2024-01-06T07:32:31;47.70;;;31.50;;
82028;SDS011;71590;52.216;13.448;2024-01-06T07:34:57;50.87;;;29.37;;
82028;SDS011;71590;52.216;13.448;2024-01-06T07:37:25;48.93;;;30.20;;
82028;SDS011;71590;52.216;13.448;2024-01-06T07:39:52;43.90;;;29.37;;
82028;SDS011;71590;52.216;13.448;2024-01-06T07:42:19;45.30;;;29.80;;
82028;SDS011;71590;52.216;13.448;2024-01-06T07:44:46;49.93;;;31.33;;
82028;SDS011;71590;52.216;13.448;2024-01-06T07:47:13;45.90;;;28.73;;
82028;SDS011;71590;52.216;13.448;2024-01-06T07:49:40;50.50;;;30.97;;
82028;SDS011;71590;52.216;13.448;2024-01-06T07:52:08;47.20;;;31.50;;
82028;SDS011;71590;52.216;13.448;2024-01-06T07:54:34;47.40;;;29.50;;
82028;SDS011;71590;52.216;13.448;2024-01-06T07:57:01;48.23;;;30.70;;
82028;SDS011;71590;52.216;13.448;2024-01-06T07:59:28;45.33;;;29.27;;
82028;SDS011;71590;52.216;13.448;2024-01-06T08:01:55;46.57;;;30.13;;
82028;SDS011;71590;52.216;13.448;2024-01-06T08:04:22;50.83;;;30.90;;
82028;SDS011;71590;52.216;13.448;2024-01-06T08:06:50;46.93;;;31.07;;
82028;SDS011;71590;52.216;13.448;2024-01-06T08:09:20;50.20;;;31.37;;
82028;SDS011;71590;52.216;13.448;2024-01-06T08:11:49;50.37;;;30.53;;
82028;SDS011;71590;52.216;13.448;2024-01-06T08:14:16;47.87;;;30.63;;
82028;SDS011;71590;52.216;13.448;2024-01-06T08:16:43;46.53;;;30.87;;
82028;SDS011;71590;52.216;13.448;2024-01-06T08:19:10;50.43;;;30.70;;
82028;SDS011;71590;52.216;13.448;2024-01-06T08:21:37;47.83;;;29.83;;
82028;SDS011;71590;52.216;13.448;2024-01-06T08:24:04;45.30;;;30.07;;
82028;SDS011;71590;52.216;13.448;2024-01-06T08:26:31;47.30;;;30.07;;
82028;SDS011;71590;52.216;13.448;2024-01-06T08:28:58;51.80;;;31.73;;
82028;SDS011;71590;52.216;13.448;2024-01-06T08:31:24;47.67;;;30.17;;
82028;SDS011;71590;52.216;13.448;2024-01-06T08:33:51;45.30;;;30.47;;
82028;SDS011;71590;52.216;13.448;2024-01-06T08:36:17;45.13;;;30.23;;
82028;SDS011;71590;52.216;13.448;2024-01-06T08:38:44;48.83;;;31.10;;
82028;SDS011;71590;52.216;13.448;2024-01-06T08:41:11;54.33;;;31.17;;
82028;SDS011;71590;52.216;13.448;2024-01-06T08:43:37;41.50;;;28.60;;
82028;SDS011;71590;52.216;13.448;2024-01-06T08:46:04;48.90;;;30.10;;
82028;SDS011;71590;52.216;13.448;2024-01-06T08:48:32;44.07;;;28.97;;
82028;SDS011;71590;52.216;13.448;2024-01-06T08:51:01;45.27;;;30.20;;
82028;SDS011;71590;52.216;13.448;2024-01-06T08:53:28;44.87;;;28.73;;
82028;SDS011;71590;52.216;13.448;2024-01-06T08:55:55;42.87;;;28.13;;
82028;SDS011;71590;52.216;13.448;2024-01-06T08:58:22;46.70;;;29.30;;
82028;SDS011;71590;52.216;13.448;2024-01-06T09:00:49;46.97;;;30.47;;
82028;SDS011;71590;52.216;13.448;2024-01-06T09:03:16;47.47;;;30.50;;
82028;SDS011;71590;52.216;13.448;2024-01-06T09:05:44;41.97;;;28.73;;
82028;SDS011;71590;52.216;13.448;2024-01-06T09:08:11;44.40;;;29.47;;
82028;SDS011;71590;52.216;13.448;2024-01-06T09:10:38;43.07;;;28.37;;
82028;SDS011;71590;52.216;13.448;2024-01-06T09:13:05;43.47;;;28.97;;
82028;SDS011;71590;52.216;13.448;2024-01-06T09:15:31;42.53;;;27.17;;
82028;SDS011;71590;52.216;13.448;2024-01-06T09:17:58;44.53;;;29.13;;
82028;SDS011;71590;52.216;13.448;2024-01-06T09:20:25;43.63;;;28.93;;
82028;SDS011;71590;52.216;13.448;2024-01-06T09:22:53;44.93;;;27.93;;
82028;SDS011;71590;52.216;13.448;2024-01-06T09:25:20;45.57;;;28.67;;
82028;SDS011;71590;52.216;13.448;2024-01-06T09:27:50;51.43;;;30.73;;
82028;SDS011;71590;52.216;13.448;2024-01-06T09:30:17;44.17;;;27.80;;
82028;SDS011;71590;52.216;13.448;2024-01-06T09:32:44;55.27;;;29.77;;
82028;SDS011;71590;52.216;13.448;2024-01-06T09:35:11;48.10;;;30.93;;
82028;SDS011;71590;52.216;13.448;2024-01-06T09:37:38;48.43;;;28.97;;
82028;SDS011;71590;52.216;13.448;2024-01-06T09:40:04;46.93;;;27.97;;
82028;SDS011;71590;52.216;13.448;2024-01-06T09:42:31;47.50;;;29.23;;
82028;SDS011;71590;52.216;13.448;2024-01-06T09:44:58;52.93;;;29.10;;
82028;SDS011;71590;52.216;13.448;2024-01-06T09:47:24;49.77;;;30.53;;
82028;SDS011;71590;52.216;13.448;2024-01-06T09:49:53;43.93;;;27.80;;
82028;SDS011;71590;52.216;13.448;2024-01-06T09:52:23;50.77;;;28.10;;
82028;SDS011;71590;52.216;13.448;2024-01-06T09:54:53;52.30;;;29.60;;
82028;SDS011;71590;52.216;13.448;2024-01-06T09:57:21;50.47;;;29.53;;
82028;SDS011;71590;52.216;13.448;2024-01-06T09:59:49;45.30;;;27.43;;
82028;SDS011;71590;52.216;13.448;2024-01-06T10:02:16;52.80;;;28.70;;
82028;SDS011;71590;52.216;13.448;2024-01-06T10:04:43;47.03;;;28.90;;
82028;SDS011;71590;52.216;13.448;2024-01-06T10:07:12;49.23;;;28.80;;
82028;SDS011;71590;52.216;13.448;2024-01-06T10:09:40;45.00;;;28.07;;
82028;SDS011;71590;52.216;13.448;2024-01-06T10:12:08;48.50;;;29.60;;
82028;SDS011;71590;52.216;13.448;2024-01-06T10:14:35;53.43;;;29.60;;
82028;SDS011;71590;52.216;13.448;2024-01-06T10:17:05;50.13;;;28.07;;
82028;SDS011;71590;52.216;13.448;2024-01-06T10:19:32;48.27;;;27.37;;
82028;SDS011;71590;52.216;13.448;2024-01-06T10:21:58;50.57;;;29.77;;
82028;SDS011;71590;52.216;13.448;2024-01-06T10:24:29;46.73;;;27.70;;
82028;SDS011;71590;52.216;13.448;2024-01-06T10:26:59;47.63;;;28.00;;
82028;SDS011;71590;52.216;13.448;2024-01-06T10:29:25;48.17;;;28.77;;
82028;SDS011;71590;52.216;13.448;2024-01-06T10:31:54;42.60;;;26.97;;
82028;SDS011;71590;52.216;13.448;2024-01-06T10:34:24;50.97;;;30.43;;
82028;SDS011;71590;52.216;13.448;2024-01-06T10:36:51;52.83;;;29.73;;
82028;SDS011;71590;52.216;13.448;2024-01-06T10:39:21;49.57;;;27.87;;
82028;SDS011;71590;52.216;13.448;2024-01-06T10:41:48;51.60;;;28.73;;
82028;SDS011;71590;52.216;13.448;2024-01-06T10:44:15;48.40;;;27.50;;
82028;SDS011;71590;52.216;13.448;2024-01-06T10:46:42;54.60;;;29.37;;
82028;SDS011;71590;52.216;13.448;2024-01-06T10:49:10;46.70;;;26.07;;
82028;SDS011;71590;52.216;13.448;2024-01-06T10:51:38;50.47;;;28.20;;
82028;SDS011;71590;52.216;13.448;2024-01-06T10:54:05;56.40;;;32.00;;
82028;SDS011;71590;52.216;13.448;2024-01-06T10:56:36;57.17;;;34.10;;
82028;SDS011;71590;52.216;13.448;2024-01-06T10:59:03;52.30;;;28.47;;
82028;SDS011;71590;52.216;13.448;2024-01-06T11:01:29;52.70;;;27.47;;
82028;SDS011;71590;52.216;13.448;2024-01-06T11:03:57;45.50;;;26.87;;
82028;SDS011;71590;52.216;13.448;2024-01-06T11:06:24;54.43;;;29.23;;
82028;SDS011;71590;52.216;13.448;2024-01-06T11:11:28;56.93;;;29.00;;
82028;SDS011;71590;52.216;13.448;2024-01-06T11:14:16;70.00;;;31.17;;
82028;SDS011;71590;52.216;13.448;2024-01-06T11:16:41;61.13;;;30.90;;
82028;SDS011;71590;52.216;13.448;2024-01-06T11:21:53;64.23;;;30.40;;
82028;SDS011;71590;52.216;13.448;2024-01-06T11:24:20;70.57;;;31.13;;
82028;SDS011;71590;52.216;13.448;2024-01-06T11:26:50;69.37;;;32.57;;
82028;SDS011;71590;52.216;13.448;2024-01-06T11:29:18;87.30;;;34.10;;
82028;SDS011;71590;52.216;13.448;2024-01-06T11:34:36;66.43;;;29.03;;
82028;SDS011;71590;52.216;13.448;2024-01-06T11:37:03;101.77;;;32.50;;
82028;SDS011;71590;52.216;13.448;2024-01-06T11:39:34;58.57;;;29.90;;
82028;SDS011;71590;52.216;13.448;2024-01-06T11:42:00;58.80;;;28.07;;
82028;SDS011;71590;52.216;13.448;2024-01-06T11:44:28;54.03;;;28.90;;
82028;SDS011;71590;52.216;13.448;2024-01-06T11:46:56;56.90;;;29.20;;
82028;SDS011;71590;52.216;13.448;2024-01-06T11:49:22;57.00;;;30.53;;
82028;SDS011;71590;52.216;13.448;2024-01-06T11:51:53;53.80;;;28.80;;
82028;SDS011;71590;52.216;13.448;2024-01-06T11:54:23;57.47;;;30.83;;
82028;SDS011;71590;52.216;13.448;2024-01-06T11:56:51;51.30;;;29.30;;
82028;SDS011;71590;52.216;13.448;2024-01-06T11:59:20;51.67;;;29.40;;
82028;SDS011;71590;52.216;13.448;2024-01-06T12:01:46;54.10;;;30.47;;
82028;SDS011;71590;52.216;13.448;2024-01-06T12:04:14;56.10;;;28.87;;
82028;SDS011;71590;52.216;13.448;2024-01-06T12:06:41;55.00;;;29.43;;
82028;SDS011;71590;52.216;13.448;2024-01-06T12:09:09;47.20;;;28.37;;
82028;SDS011;71590;52.216;13.448;2024-01-06T12:11:35;46.20;;;27.93;;
82028;SDS011;71590;52.216;13.448;2024-01-06T12:14:04;56.10;;;30.63;;
82028;SDS011;71590;52.216;13.448;2024-01-06T12:16:31;54.53;;;30.30;;
82028;SDS011;71590;52.216;13.448;2024-01-06T12:18:59;49.10;;;29.20;;
82028;SDS011;71590;52.216;13.448;2024-01-06T12:21:31;47.73;;;27.43;;
82028;SDS011;71590;52.216;13.448;2024-01-06T12:24:12;45.67;;;30.07;;
82028;SDS011;71590;52.216;13.448;2024-01-06T12:26:40;45.10;;;27.87;;
82028;SDS011;71590;52.216;13.448;2024-01-06T12:29:07;43.77;;;26.47;;
82028;SDS011;71590;52.216;13.448;2024-01-06T12:31:34;39.80;;;26.60;;
82028;SDS011;71590;52.216;13.448;2024-01-06T12:34:05;44.37;;;28.37;;
82028;SDS011;71590;52.216;13.448;2024-01-06T12:36:37;42.30;;;27.00;;
82028;SDS011;71590;52.216;13.448;2024-01-06T12:39:04;41.00;;;28.57;;
82028;SDS011;71590;52.216;13.448;2024-01-06T12:41:31;42.73;;;26.90;;
82028;SDS011;71590;52.216;13.448;2024-01-06T12:44:01;41.70;;;27.50;;
82028;SDS011;71590;52.216;13.448;2024-01-06T12:46:28;38.60;;;26.13;;
82028;SDS011;71590;52.216;13.448;2024-01-06T12:48:55;44.67;;;26.63;;
82028;SDS011;71590;52.216;13.448;2024-01-06T12:51:22;39.80;;;25.43;;
82028;SDS011;71590;52.216;13.448;2024-01-06T12:53:49;40.57;;;26.13;;
82028;SDS011;71590;52.216;13.448;2024-01-06T12:56:17;40.10;;;26.77;;
82028;SDS011;71590;52.216;13.448;2024-01-06T12:58:43;43.83;;;28.33;;
82028;SDS011;71590;52.216;13.448;2024-01-06T13:01:13;38.10;;;25.53;;
82028;SDS011;71590;52.216;13.448;2024-01-06T13:03:39;38.73;;;24.87;;
82028;SDS011;71590;52.216;13.448;2024-01-06T13:06:06;42.17;;;26.10;;
82028;SDS011;71590;52.216;13.448;2024-01-06T13:08:33;36.57;;;25.37;;
82028;SDS011;71590;52.216;13.448;2024-01-06T13:11:00;39.93;;;26.93;;
82028;SDS011;71590;52.216;13.448;2024-01-06T13:13:27;39.10;;;26.83;;
82028;SDS011;71590;52.216;13.448;2024-01-06T13:15:53;44.57;;;27.33;;
82028;SDS011;71590;52.216;13.448;2024-01-06T13:18:20;37.97;;;26.00;;
82028;SDS011;71590;52.216;13.448;2024-01-06T13:20:47;37.90;;;27.07;;
82028;SDS011;71590;52.216;13.448;2024-01-06T13:23:16;39.10;;;26.87;;
82028;SDS011;71590;52.216;13.448;2024-01-06T13:25:42;39.37;;;26.23;;
82028;SDS011;71590;52.216;13.448;2024-01-06T13:28:08;42.33;;;27.30;;
82028;SDS011;71590;52.216;13.448;2024-01-06T13:30:37;32.97;;;24.63;;
82028;SDS011;71590;52.216;13.448;2024-01-06T13:33:05;41.00;;;26.60;;
82028;SDS011;71590;52.216;13.448;2024-01-06T13:35:32;42.77;;;25.57;;
82028;SDS011;71590;52.216;13.448;2024-01-06T13:38:00;38.33;;;25.90;;
82028;SDS011;71590;52.216;13.448;2024-01-06T13:40:28;38.87;;;25.37;;
82028;SDS011;71590;52.216;13.448;2024-01-06T13:42:59;36.97;;;25.60;;
82028;SDS011;71590;52.216;13.448;2024-01-06T13:45:25;37.53;;;25.53;;
82028;SDS011;71590;52.216;13.448;2024-01-06T13:47:54;41.03;;;26.23;;
82028;SDS011;71590;52.216;13.448;2024-01-06T13:50:21;37.53;;;25.27;;
82028;SDS011;71590;52.216;13.448;2024-01-06T13:52:48;43.80;;;27.23;;
82028;SDS011;71590;52.216;13.448;2024-01-06T13:55:15;37.27;;;25.50;;
82028;SDS011;71590;52.216;13.448;2024-01-06T13:57:42;38.80;;;26.67;;
82028;SDS011;71590;52.216;13.448;2024-01-06T14:00:09;36.43;;;26.43;;
82028;SDS011;71590;52.216;13.448;2024-01-06T14:02:37;39.50;;;26.73;;
82028;SDS011;71590;52.216;13.448;2024-01-06T14:05:05;37.87;;;25.50;;
82028;SDS011;71590;52.216;13.448;2024-01-06T14:07:37;38.77;;;26.37;;
82028;SDS011;71590;52.216;13.448;2024-01-06T14:10:12;43.17;;;26.60;;
82028;SDS011;71590;52.216;13.448;2024-01-06T14:12:39;37.17;;;26.53;;
82028;SDS011;71590;52.216;13.448;2024-01-06T14:15:07;38.27;;;27.23;;
82028;SDS011;71590;52.216;13.448;2024-01-06T14:17:36;39.53;;;27.47;;